sensor_id;sensor_type;location;lat;lon;timestamp;temperature;humidity
3005;DHT22;1512;51.486;6.610;2022-08-30T00:04:02;19.70;99.90
3005;DHT22;1512;51.486;6.610;2022-08-30T00:08:13;19.60;99.90
3005;DHT22;1512;51.486;6.610;2022-08-30T00:12:22;19.60;99.90
3005;DHT22;1512;51.486;6.610;2022-08-30T00:16:50;19.60;99.90
3005;DHT22;1512;51.486;6.610;2022-08-30T00:20:59;19.60;99.90
3005;DHT22;1512;51.486;6.610;2022-08-30T00:25:08;19.60;99.90
3005;DHT22;1512;51.486;6.610;2022-08-30T00:29:17;19.60;99.90
3005;DHT22;1512;51.486;6.610;2022-08-30T00:33:25;19.60;99.90
3005;DHT22;1512;51.486;6.610;2022-08-30T00:37:34;19.60;99.90
3005;DHT22;1512;51.486;6.610;2022-08-30T00:42:02;19.60;99.90
3005;DHT22;1512;51.486;6.610;2022-08-30T00:46:10;19.60;99.90
3005;DHT22;1512;51.486;6.610;2022-08-30T00:50:22;19.50;99.90
3005;DHT22;1512;51.486;6.610;2022-08-30T00:54:33;19.50;99.90
3005;DHT22;1512;51.486;6.610;2022-08-30T00:58:47;19.50;99.90
3005;DHT22;1512;51.486;6.610;2022-08-30T01:02:54;19.40;99.90
3005;DHT22;1512;51.486;6.610;2022-08-30T01:07:23;19.40;99.90
3005;DHT22;1512;51.486;6.610;2022-08-30T01:11:33;19.50;99.90
3005;DHT22;1512;51.486;6.610;2022-08-30T01:15:45;19.40;99.90
3005;DHT22;1512;51.486;6.610;2022-08-30T01:20:04;19.40;99.90
3005;DHT22;1512;51.486;6.610;2022-08-30T01:24:08;19.40;99.90
3005;DHT22;1512;51.486;6.610;2022-08-30T01:28:20;19.40;99.90
3005;DHT22;1512;51.486;6.610;2022-08-30T01:32:29;19.40;99.90
3005;DHT22;1512;51.486;6.610;2022-08-30T01:36:39;19.40;99.90
3005;DHT22;1512;51.486;6.610;2022-08-30T01:45:14;19.30;99.90
3005;DHT22;1512;51.486;6.610;2022-08-30T01:49:22;19.20;99.90
3005;DHT22;1512;51.486;6.610;2022-08-30T01:53:33;19.20;99.90
3005;DHT22;1512;51.486;6.610;2022-08-30T01:57:41;19.20;99.90
3005;DHT22;1512;51.486;6.610;2022-08-30T02:01:50;19.20;99.90
3005;DHT22;1512;51.486;6.610;2022-08-30T02:06:04;19.20;99.90
3005;DHT22;1512;51.486;6.610;2022-08-30T02:10:13;19.20;99.90
3005;DHT22;1512;51.486;6.610;2022-08-30T02:14:22;19.10;99.90
3005;DHT22;1512;51.486;6.610;2022-08-30T02:18:32;19.10;99.90
3005;DHT22;1512;51.486;6.610;2022-08-30T02:22:41;19.20;99.90
3005;DHT22;1512;51.486;6.610;2022-08-30T02:26:52;19.20;99.90
3005;DHT22;1512;51.486;6.610;2022-08-30T02:31:01;19.20;99.90
3005;DHT22;1512;51.486;6.610;2022-08-30T02:35:09;19.10;99.90
3005;DHT22;1512;51.486;6.610;2022-08-30T02:39:18;19.00;99.90
3005;DHT22;1512;51.486;6.610;2022-08-30T02:43:27;19.00;99.90
3005;DHT22;1512;51.486;6.610;2022-08-30T02:47:35;19.00;99.90
3005;DHT22;1512;51.486;6.610;2022-08-30T02:51:44;18.90;99.90
3005;DHT22;1512;51.486;6.610;2022-08-30T02:55:53;18.80;99.90
3005;DHT22;1512;51.486;6.610;2022-08-30T03:00:11;18.80;99.90
3005;DHT22;1512;51.486;6.610;2022-08-30T03:04:15;18.80;99.90
3005;DHT22;1512;51.486;6.610;2022-08-30T03:08:24;18.80;99.90
3005;DHT22;1512;51.486;6.610;2022-08-30T03:12:32;18.80;99.90
3005;DHT22;1512;51.486;6.610;2022-08-30T03:16:41;18.80;99.90
3005;DHT22;1512;51.486;6.610;2022-08-30T03:20:50;18.70;99.90
3005;DHT22;1512;51.486;6.610;2022-08-30T03:25:01;18.70;99.90
3005;DHT22;1512;51.486;6.610;2022-08-30T03:29:09;18.70;99.90
3005;DHT22;1512;51.486;6.610;2022-08-30T03:33:18;18.70;99.90
3005;DHT22;1512;51.486;6.610;2022-08-30T03:37:28;18.70;99.90
3005;DHT22;1512;51.486;6.610;2022-08-30T03:41:37;18.60;99.90
3005;DHT22;1512;51.486;6.610;2022-08-30T03:45:47;18.60;99.90
3005;DHT22;1512;51.486;6.610;2022-08-30T03:49:56;18.50;99.90
3005;DHT22;1512;51.486;6.610;2022-08-30T03:54:06;18.50;99.90
3005;DHT22;1512;51.486;6.610;2022-08-30T03:58:16;18.50;99.90
3005;DHT22;1512;51.486;6.610;2022-08-30T04:02:45;18.50;99.90
3005;DHT22;1512;51.486;6.610;2022-08-30T04:06:53;18.50;99.90
3005;DHT22;1512;51.486;6.610;2022-08-30T04:11:03;18.50;99.90
3005;DHT22;1512;51.486;6.610;2022-08-30T04:15:11;18.40;99.90
3005;DHT22;1512;51.486;6.610;2022-08-30T04:19:20;18.30;99.90
3005;DHT22;1512;51.486;6.610;2022-08-30T04:23:29;18.20;99.90
3005;DHT22;1512;51.486;6.610;2022-08-30T04:27:38;18.20;99.90
3005;DHT22;1512;51.486;6.610;2022-08-30T04:31:46;18.30;99.90
3005;DHT22;1512;51.486;6.610;2022-08-30T04:36:00;18.30;99.90
3005;DHT22;1512;51.486;6.610;2022-08-30T04:40:08;18.30;99.90
3005;DHT22;1512;51.486;6.610;2022-08-30T04:44:17;18.30;99.90
3005;DHT22;1512;51.486;6.610;2022-08-30T04:48:26;18.30;99.90
3005;DHT22;1512;51.486;6.610;2022-08-30T04:52:54;18.30;99.90
3005;DHT22;1512;51.486;6.610;2022-08-30T04:57:05;18.20;99.90
3005;DHT22;1512;51.486;6.610;2022-08-30T05:01:20;18.20;99.90
3005;DHT22;1512;51.486;6.610;2022-08-30T05:05:30;18.10;99.90
3005;DHT22;1512;51.486;6.610;2022-08-30T05:09:48;18.10;99.90
3005;DHT22;1512;51.486;6.610;2022-08-30T05:13:57;18.00;99.90
3005;DHT22;1512;51.486;6.610;2022-08-30T05:18:07;18.00;99.90
3005;DHT22;1512;51.486;6.610;2022-08-30T05:22:18;18.00;99.90
3005;DHT22;1512;51.486;6.610;2022-08-30T05:26:30;18.00;99.90
3005;DHT22;1512;51.486;6.610;2022-08-30T05:30:39;17.90;99.90
3005;DHT22;1512;51.486;6.610;2022-08-30T05:34:48;17.80;99.90
3005;DHT22;1512;51.486;6.610;2022-08-30T05:38:57;17.90;99.90
3005;DHT22;1512;51.486;6.610;2022-08-30T05:43:09;17.90;99.90
3005;DHT22;1512;51.486;6.610;2022-08-30T05:47:19;17.90;99.90
3005;DHT22;1512;51.486;6.610;2022-08-30T05:51:31;18.00;99.90
3005;DHT22;1512;51.486;6.610;2022-08-30T05:55:41;18.00;99.90
3005;DHT22;1512;51.486;6.610;2022-08-30T05:59:50;18.00;99.90
3005;DHT22;1512;51.486;6.610;2022-08-30T06:04:00;18.00;99.90
3005;DHT22;1512;51.486;6.610;2022-08-30T06:08:10;18.10;99.90
3005;DHT22;1512;51.486;6.610;2022-08-30T06:12:19;18.10;99.90
3005;DHT22;1512;51.486;6.610;2022-08-30T06:16:28;18.10;99.90
3005;DHT22;1512;51.486;6.610;2022-08-30T06:20:42;18.10;99.90
3005;DHT22;1512;51.486;6.610;2022-08-30T06:24:51;18.10;99.90
3005;DHT22;1512;51.486;6.610;2022-08-30T06:29:01;18.10;99.90
3005;DHT22;1512;51.486;6.610;2022-08-30T06:33:11;18.10;99.90
3005;DHT22;1512;51.486;6.610;2022-08-30T06:37:19;18.10;99.90
3005;DHT22;1512;51.486;6.610;2022-08-30T06:41:32;18.10;99.90
3005;DHT22;1512;51.486;6.610;2022-08-30T06:45:41;18.10;99.90
3005;DHT22;1512;51.486;6.610;2022-08-30T06:49:49;18.10;99.90
3005;DHT22;1512;51.486;6.610;2022-08-30T06:53:58;18.20;99.90
3005;DHT22;1512;51.486;6.610;2022-08-30T06:58:08;18.30;99.90
3005;DHT22;1512;51.486;6.610;2022-08-30T07:02:16;18.30;99.90
3005;DHT22;1512;51.486;6.610;2022-08-30T07:06:29;18.30;99.90
3005;DHT22;1512;51.486;6.610;2022-08-30T07:10:44;18.40;99.90
3005;DHT22;1512;51.486;6.610;2022-08-30T07:14:53;18.50;99.90
3005;DHT22;1512;51.486;6.610;2022-08-30T07:19:03;18.60;99.90
3005;DHT22;1512;51.486;6.610;2022-08-30T07:23:12;18.60;99.90
3005;DHT22;1512;51.486;6.610;2022-08-30T07:27:21;18.60;99.90
3005;DHT22;1512;51.486;6.610;2022-08-30T07:31:30;18.70;99.90
3005;DHT22;1512;51.486;6.610;2022-08-30T07:35:40;18.80;99.90
3005;DHT22;1512;51.486;6.610;2022-08-30T07:39:50;18.90;99.90
3005;DHT22;1512;51.486;6.610;2022-08-30T07:43:59;18.90;99.90
3005;DHT22;1512;51.486;6.610;2022-08-30T07:48:11;19.00;99.90
3005;DHT22;1512;51.486;6.610;2022-08-30T07:52:39;19.10;99.90
3005;DHT22;1512;51.486;6.610;2022-08-30T07:56:48;19.20;99.90
3005;DHT22;1512;51.486;6.610;2022-08-30T08:00:57;19.30;99.90
3005;DHT22;1512;51.486;6.610;2022-08-30T08:05:07;19.40;99.90
3005;DHT22;1512;51.486;6.610;2022-08-30T08:09:17;19.50;99.90
3005;DHT22;1512;51.486;6.610;2022-08-30T08:13:26;19.60;99.90
3005;DHT22;1512;51.486;6.610;2022-08-30T08:17:36;19.70;99.90
3005;DHT22;1512;51.486;6.610;2022-08-30T08:21:45;19.80;99.90
3005;DHT22;1512;51.486;6.610;2022-08-30T08:25:55;19.90;99.90
3005;DHT22;1512;51.486;6.610;2022-08-30T08:30:05;20.10;99.90
3005;DHT22;1512;51.486;6.610;2022-08-30T08:34:14;20.30;99.90
3005;DHT22;1512;51.486;6.610;2022-08-30T08:38:25;20.40;99.90
3005;DHT22;1512;51.486;6.610;2022-08-30T08:43:03;20.60;99.90
3005;DHT22;1512;51.486;6.610;2022-08-30T08:47:15;20.70;99.90
3005;DHT22;1512;51.486;6.610;2022-08-30T08:51:29;20.80;99.90
3005;DHT22;1512;51.486;6.610;2022-08-30T08:55:54;20.90;99.90
3005;DHT22;1512;51.486;6.610;2022-08-30T09:00:08;21.00;99.90
3005;DHT22;1512;51.486;6.610;2022-08-30T09:04:23;21.10;99.90
3005;DHT22;1512;51.486;6.610;2022-08-30T09:08:32;21.10;99.90
3005;DHT22;1512;51.486;6.610;2022-08-30T09:12:42;21.20;99.90
3005;DHT22;1512;51.486;6.610;2022-08-30T09:21:19;21.40;99.90
3005;DHT22;1512;51.486;6.610;2022-08-30T09:25:30;21.60;99.90
3005;DHT22;1512;51.486;6.610;2022-08-30T09:30:01;21.80;99.90
3005;DHT22;1512;51.486;6.610;2022-08-30T09:34:01;22.00;99.90
3005;DHT22;1512;51.486;6.610;2022-08-30T09:38:28;22.10;99.90
3005;DHT22;1512;51.486;6.610;2022-08-30T09:42:36;22.30;99.90
3005;DHT22;1512;51.486;6.610;2022-08-30T09:46:54;22.40;99.90
3005;DHT22;1512;51.486;6.610;2022-08-30T09:55:38;22.60;99.90
3005;DHT22;1512;51.486;6.610;2022-08-30T10:00:06;22.80;99.90
3005;DHT22;1512;51.486;6.610;2022-08-30T10:04:31;23.00;99.90
3005;DHT22;1512;51.486;6.610;2022-08-30T10:18:02;23.50;99.90
3005;DHT22;1512;51.486;6.610;2022-08-30T10:22:21;23.80;99.90
3005;DHT22;1512;51.486;6.610;2022-08-30T10:26:56;24.00;99.90
3005;DHT22;1512;51.486;6.610;2022-08-30T10:31:29;24.20;99.90
3005;DHT22;1512;51.486;6.610;2022-08-30T10:35:39;24.40;99.90
3005;DHT22;1512;51.486;6.610;2022-08-30T10:39:57;24.30;99.90
3005;DHT22;1512;51.486;6.610;2022-08-30T10:44:18;24.10;99.90
3005;DHT22;1512;51.486;6.610;2022-08-30T10:48:34;23.90;99.90
3005;DHT22;1512;51.486;6.610;2022-08-30T10:52:46;23.90;99.90
3005;DHT22;1512;51.486;6.610;2022-08-30T10:56:55;24.00;99.90
3005;DHT22;1512;51.486;6.610;2022-08-30T11:05:58;24.50;99.90
3005;DHT22;1512;51.486;6.610;2022-08-30T11:14:41;25.00;99.90
3005;DHT22;1512;51.486;6.610;2022-08-30T11:18:53;25.10;99.90
3005;DHT22;1512;51.486;6.610;2022-08-30T11:27:43;25.20;99.10
3005;DHT22;1512;51.486;6.610;2022-08-30T11:31:52;25.10;97.90
3005;DHT22;1512;51.486;6.610;2022-08-30T11:36:01;25.20;97.00
3005;DHT22;1512;51.486;6.610;2022-08-30T11:40:51;25.10;95.70
3005;DHT22;1512;51.486;6.610;2022-08-30T11:49:44;25.40;94.80
3005;DHT22;1512;51.486;6.610;2022-08-30T11:58:45;25.70;93.70
3005;DHT22;1512;51.486;6.610;2022-08-30T12:02:57;25.80;91.50
3005;DHT22;1512;51.486;6.610;2022-08-30T12:07:08;25.80;91.10
3005;DHT22;1512;51.486;6.610;2022-08-30T12:15:54;25.60;90.20
3005;DHT22;1512;51.486;6.610;2022-08-30T12:20:04;25.50;90.40
3005;DHT22;1512;51.486;6.610;2022-08-30T12:24:40;25.40;90.60
3005;DHT22;1512;51.486;6.610;2022-08-30T12:33:24;25.80;88.30
3005;DHT22;1512;51.486;6.610;2022-08-30T12:37:36;26.00;86.70
3005;DHT22;1512;51.486;6.610;2022-08-30T12:46:34;26.00;84.80
3005;DHT22;1512;51.486;6.610;2022-08-30T12:50:46;26.10;81.90
3005;DHT22;1512;51.486;6.610;2022-08-30T12:55:20;26.10;80.00
3005;DHT22;1512;51.486;6.610;2022-08-30T12:59:54;26.00;84.30
3005;DHT22;1512;51.486;6.610;2022-08-30T13:04:19;26.20;81.70
3005;DHT22;1512;51.486;6.610;2022-08-30T13:08:33;26.20;81.00
3005;DHT22;1512;51.486;6.610;2022-08-30T13:12:58;26.30;80.20
3005;DHT22;1512;51.486;6.610;2022-08-30T13:17:19;26.30;79.50
3005;DHT22;1512;51.486;6.610;2022-08-30T13:25:34;26.20;79.20
3005;DHT22;1512;51.486;6.610;2022-08-30T13:29:43;26.40;75.80
3005;DHT22;1512;51.486;6.610;2022-08-30T13:33:52;26.50;76.70
3005;DHT22;1512;51.486;6.610;2022-08-30T13:38:01;26.60;74.90
3005;DHT22;1512;51.486;6.610;2022-08-30T13:42:10;26.40;72.10
3005;DHT22;1512;51.486;6.610;2022-08-30T13:46:21;26.40;76.90
3005;DHT22;1512;51.486;6.610;2022-08-30T13:50:33;26.60;74.20
3005;DHT22;1512;51.486;6.610;2022-08-30T13:54:41;26.60;73.10
3005;DHT22;1512;51.486;6.610;2022-08-30T13:58:50;26.50;72.50
3005;DHT22;1512;51.486;6.610;2022-08-30T14:02:59;26.40;73.20
3005;DHT22;1512;51.486;6.610;2022-08-30T14:07:09;26.20;71.30
3005;DHT22;1512;51.486;6.610;2022-08-30T14:11:20;26.10;71.90
3005;DHT22;1512;51.486;6.610;2022-08-30T14:15:29;26.10;73.90
3005;DHT22;1512;51.486;6.610;2022-08-30T14:19:38;26.20;72.80
3005;DHT22;1512;51.486;6.610;2022-08-30T14:23:46;26.20;73.40
3005;DHT22;1512;51.486;6.610;2022-08-30T14:27:56;26.40;73.50
3005;DHT22;1512;51.486;6.610;2022-08-30T14:32:05;26.50;71.50
3005;DHT22;1512;51.486;6.610;2022-08-30T14:36:14;26.70;71.90
3005;DHT22;1512;51.486;6.610;2022-08-30T14:40:22;26.70;68.40
3005;DHT22;1512;51.486;6.610;2022-08-30T14:44:32;26.70;70.20
3005;DHT22;1512;51.486;6.610;2022-08-30T14:48:42;26.70;71.30
3005;DHT22;1512;51.486;6.610;2022-08-30T14:52:52;26.60;68.00
3005;DHT22;1512;51.486;6.610;2022-08-30T14:57:01;26.50;69.20
3005;DHT22;1512;51.486;6.610;2022-08-30T15:01:11;26.60;67.50
3005;DHT22;1512;51.486;6.610;2022-08-30T15:05:20;26.50;69.00
3005;DHT22;1512;51.486;6.610;2022-08-30T15:09:30;26.50;67.00
3005;DHT22;1512;51.486;6.610;2022-08-30T15:13:40;26.50;68.20
3005;DHT22;1512;51.486;6.610;2022-08-30T15:17:51;26.50;66.10
3005;DHT22;1512;51.486;6.610;2022-08-30T15:22:02;26.50;66.30
3005;DHT22;1512;51.486;6.610;2022-08-30T15:26:11;26.50;67.70
3005;DHT22;1512;51.486;6.610;2022-08-30T15:30:20;26.50;68.20
3005;DHT22;1512;51.486;6.610;2022-08-30T15:34:30;26.40;67.30
3005;DHT22;1512;51.486;6.610;2022-08-30T15:38:39;26.20;68.30
3005;DHT22;1512;51.486;6.610;2022-08-30T15:42:49;26.00;66.90
3005;DHT22;1512;51.486;6.610;2022-08-30T15:46:58;25.70;68.30
3005;DHT22;1512;51.486;6.610;2022-08-30T15:51:26;25.50;68.60
3005;DHT22;1512;51.486;6.610;2022-08-30T15:55:37;25.50;69.50
3005;DHT22;1512;51.486;6.610;2022-08-30T15:59:45;25.70;69.70
3005;DHT22;1512;51.486;6.610;2022-08-30T16:03:54;25.70;66.90
3005;DHT22;1512;51.486;6.610;2022-08-30T16:08:03;25.70;67.50
3005;DHT22;1512;51.486;6.610;2022-08-30T16:12:12;25.70;67.00
3005;DHT22;1512;51.486;6.610;2022-08-30T16:16:23;25.70;66.90
3005;DHT22;1512;51.486;6.610;2022-08-30T16:20:32;25.70;67.30
3005;DHT22;1512;51.486;6.610;2022-08-30T16:24:40;25.70;67.90
3005;DHT22;1512;51.486;6.610;2022-08-30T16:28:52;25.60;66.80
3005;DHT22;1512;51.486;6.610;2022-08-30T16:33:01;25.50;68.40
3005;DHT22;1512;51.486;6.610;2022-08-30T16:37:10;25.40;67.70
3005;DHT22;1512;51.486;6.610;2022-08-30T16:41:18;25.30;68.00
3005;DHT22;1512;51.486;6.610;2022-08-30T16:45:29;25.10;68.00
3005;DHT22;1512;51.486;6.610;2022-08-30T16:49:40;24.90;68.20
3005;DHT22;1512;51.486;6.610;2022-08-30T16:53:49;24.80;69.00
3005;DHT22;1512;51.486;6.610;2022-08-30T16:57:57;24.70;68.10
3005;DHT22;1512;51.486;6.610;2022-08-30T17:02:06;24.50;68.10
3005;DHT22;1512;51.486;6.610;2022-08-30T17:06:17;24.50;68.70
3005;DHT22;1512;51.486;6.610;2022-08-30T17:10:27;24.40;69.80
3005;DHT22;1512;51.486;6.610;2022-08-30T17:14:37;24.40;70.40
3005;DHT22;1512;51.486;6.610;2022-08-30T17:18:47;24.40;69.00
3005;DHT22;1512;51.486;6.610;2022-08-30T17:22:58;24.40;69.80
3005;DHT22;1512;51.486;6.610;2022-08-30T17:27:09;24.40;69.40
3005;DHT22;1512;51.486;6.610;2022-08-30T17:31:18;24.30;69.50
3005;DHT22;1512;51.486;6.610;2022-08-30T17:35:27;24.20;69.30
3005;DHT22;1512;51.486;6.610;2022-08-30T17:39:36;24.20;69.80
3005;DHT22;1512;51.486;6.610;2022-08-30T17:43:45;24.20;69.10
3005;DHT22;1512;51.486;6.610;2022-08-30T17:47:54;24.10;69.80
3005;DHT22;1512;51.486;6.610;2022-08-30T17:52:04;24.10;70.70
3005;DHT22;1512;51.486;6.610;2022-08-30T17:56:13;24.00;69.90
3005;DHT22;1512;51.486;6.610;2022-08-30T18:00:22;23.90;70.50
3005;DHT22;1512;51.486;6.610;2022-08-30T18:04:31;23.80;70.40
3005;DHT22;1512;51.486;6.610;2022-08-30T18:08:40;23.70;70.80
3005;DHT22;1512;51.486;6.610;2022-08-30T18:12:49;23.70;71.30
3005;DHT22;1512;51.486;6.610;2022-08-30T18:16:59;23.60;71.50
3005;DHT22;1512;51.486;6.610;2022-08-30T18:21:12;23.50;72.40
3005;DHT22;1512;51.486;6.610;2022-08-30T18:25:21;23.40;72.80
3005;DHT22;1512;51.486;6.610;2022-08-30T18:29:30;23.30;71.40
3005;DHT22;1512;51.486;6.610;2022-08-30T18:33:41;23.30;71.70
3005;DHT22;1512;51.486;6.610;2022-08-30T18:37:50;23.20;72.40
3005;DHT22;1512;51.486;6.610;2022-08-30T18:41:58;23.20;72.20
3005;DHT22;1512;51.486;6.610;2022-08-30T18:46:10;23.10;72.10
3005;DHT22;1512;51.486;6.610;2022-08-30T18:50:21;23.00;72.40
3005;DHT22;1512;51.486;6.610;2022-08-30T18:54:31;23.00;72.60
3005;DHT22;1512;51.486;6.610;2022-08-30T18:58:39;22.90;73.30
3005;DHT22;1512;51.486;6.610;2022-08-30T19:02:50;22.90;73.80
3005;DHT22;1512;51.486;6.610;2022-08-30T19:06:58;22.90;74.40
3005;DHT22;1512;51.486;6.610;2022-08-30T19:11:08;22.80;75.10
3005;DHT22;1512;51.486;6.610;2022-08-30T19:15:17;22.80;74.80
3005;DHT22;1512;51.486;6.610;2022-08-30T19:19:26;22.80;75.40
3005;DHT22;1512;51.486;6.610;2022-08-30T19:23:35;22.70;76.80
3005;DHT22;1512;51.486;6.610;2022-08-30T19:27:43;22.70;77.20
3005;DHT22;1512;51.486;6.610;2022-08-30T19:31:52;22.70;76.20
3005;DHT22;1512;51.486;6.610;2022-08-30T19:36:01;22.60;76.50
3005;DHT22;1512;51.486;6.610;2022-08-30T19:40:14;22.50;76.90
3005;DHT22;1512;51.486;6.610;2022-08-30T19:44:22;22.50;77.00
3005;DHT22;1512;51.486;6.610;2022-08-30T19:48:31;22.50;77.00
3005;DHT22;1512;51.486;6.610;2022-08-30T19:52:41;22.40;77.20
3005;DHT22;1512;51.486;6.610;2022-08-30T19:56:51;22.40;78.30
3005;DHT22;1512;51.486;6.610;2022-08-30T20:00:59;22.30;79.00
3005;DHT22;1512;51.486;6.610;2022-08-30T20:05:10;22.20;79.10
3005;DHT22;1512;51.486;6.610;2022-08-30T20:09:19;22.10;79.60
3005;DHT22;1512;51.486;6.610;2022-08-30T20:13:28;22.10;79.60
3005;DHT22;1512;51.486;6.610;2022-08-30T20:17:40;22.00;80.00
3005;DHT22;1512;51.486;6.610;2022-08-30T20:21:50;22.00;80.70
3005;DHT22;1512;51.486;6.610;2022-08-30T20:26:01;22.00;81.10
3005;DHT22;1512;51.486;6.610;2022-08-30T20:30:12;21.90;81.00
3005;DHT22;1512;51.486;6.610;2022-08-30T20:34:21;21.90;81.70
3005;DHT22;1512;51.486;6.610;2022-08-30T20:38:32;22.00;82.50
3005;DHT22;1512;51.486;6.610;2022-08-30T20:42:41;21.90;81.70
3005;DHT22;1512;51.486;6.610;2022-08-30T20:46:51;21.90;82.00
3005;DHT22;1512;51.486;6.610;2022-08-30T20:51:02;21.80;82.50
3005;DHT22;1512;51.486;6.610;2022-08-30T20:55:11;21.80;82.90
3005;DHT22;1512;51.486;6.610;2022-08-30T20:59:21;21.70;83.10
3005;DHT22;1512;51.486;6.610;2022-08-30T21:03:29;21.70;83.30
3005;DHT22;1512;51.486;6.610;2022-08-30T21:07:39;21.60;83.30
3005;DHT22;1512;51.486;6.610;2022-08-30T21:11:48;21.60;83.20
3005;DHT22;1512;51.486;6.610;2022-08-30T21:15:57;21.50;83.60
3005;DHT22;1512;51.486;6.610;2022-08-30T21:20:09;21.50;83.30
3005;DHT22;1512;51.486;6.610;2022-08-30T21:24:18;21.50;83.80
3005;DHT22;1512;51.486;6.610;2022-08-30T21:28:27;21.50;83.80
3005;DHT22;1512;51.486;6.610;2022-08-30T21:32:35;21.40;83.90
3005;DHT22;1512;51.486;6.610;2022-08-30T21:36:44;21.40;84.10
3005;DHT22;1512;51.486;6.610;2022-08-30T21:40:53;21.30;84.50
3005;DHT22;1512;51.486;6.610;2022-08-30T21:45:02;21.40;85.20
3005;DHT22;1512;51.486;6.610;2022-08-30T21:49:13;21.40;85.40
3005;DHT22;1512;51.486;6.610;2022-08-30T21:53:22;21.30;85.10
3005;DHT22;1512;51.486;6.610;2022-08-30T21:57:30;21.30;84.70
3005;DHT22;1512;51.486;6.610;2022-08-30T22:01:40;21.30;85.80
3005;DHT22;1512;51.486;6.610;2022-08-30T22:05:51;21.20;85.50
3005;DHT22;1512;51.486;6.610;2022-08-30T22:09:59;21.10;86.40
3005;DHT22;1512;51.486;6.610;2022-08-30T22:14:09;21.00;87.40
3005;DHT22;1512;51.486;6.610;2022-08-30T22:18:19;21.00;87.50
3005;DHT22;1512;51.486;6.610;2022-08-30T22:22:27;21.00;87.20
3005;DHT22;1512;51.486;6.610;2022-08-30T22:26:37;20.90;88.10
3005;DHT22;1512;51.486;6.610;2022-08-30T22:30:47;20.90;88.70
3005;DHT22;1512;51.486;6.610;2022-08-30T22:34:56;20.80;88.90
3005;DHT22;1512;51.486;6.610;2022-08-30T22:39:07;20.80;89.70
3005;DHT22;1512;51.486;6.610;2022-08-30T22:43:17;20.70;90.20
3005;DHT22;1512;51.486;6.610;2022-08-30T22:47:26;20.70;90.40
3005;DHT22;1512;51.486;6.610;2022-08-30T22:51:35;20.70;90.60
3005;DHT22;1512;51.486;6.610;2022-08-30T22:55:43;20.70;90.70
3005;DHT22;1512;51.486;6.610;2022-08-30T22:59:52;20.70;90.90
3005;DHT22;1512;51.486;6.610;2022-08-30T23:04:05;20.50;91.40
3005;DHT22;1512;51.486;6.610;2022-08-30T23:08:12;20.50;92.00
3005;DHT22;1512;51.486;6.610;2022-08-30T23:12:24;20.40;92.50
3005;DHT22;1512;51.486;6.610;2022-08-30T23:16:33;20.40;93.00
3005;DHT22;1512;51.486;6.610;2022-08-30T23:20:42;20.40;93.50
3005;DHT22;1512;51.486;6.610;2022-08-30T23:24:52;20.40;94.20
3005;DHT22;1512;51.486;6.610;2022-08-30T23:29:21;20.30;94.60
3005;DHT22;1512;51.486;6.610;2022-08-30T23:33:48;20.30;95.20
3005;DHT22;1512;51.486;6.610;2022-08-30T23:38:16;20.30;95.90
3005;DHT22;1512;51.486;6.610;2022-08-30T23:43:08;20.30;96.60
3005;DHT22;1512;51.486;6.610;2022-08-30T23:47:35;20.20;97.50
3005;DHT22;1512;51.486;6.610;2022-08-30T23:52:02;20.20;98.60
3005;DHT22;1512;51.486;6.610;2022-08-30T23:56:29;20.20;99.30
